Main page
METAR-TAF:

METAR-TAF

Airports :

Federico García Lorca Airport

Granada, Spain

latitude: 37-11N, longitude: 003-47W, elevation: 567 m

Current weather observation

The report was made 47 minutes ago, at 01:00 UTC
Wind 1 kt from variable directions
Temperature 21°C
Humidity 49%
Pressure 1017 hPa
Visibility 10 km or more
no clouds below 1500 m and no cumulonimbus

METAR: LEGR 150100Z AUTO VRB01KT CAVOK 21/10 Q1017

Time: 03:47 (01:47 UTC)

Forecast

The report was made 5 hours and 47 minutes ago, at 20:00 UTC
Forecast valid from 14 at 21 UTC to 15 at 21 UTC
Wind 2 kt from variable directions
Visibility 10 km or more
no clouds below 1500 m and no cumulonimbus
Becoming
from 15 at 12 UTC to 15 at 14 UTC
Wind 10 kt from the West

TAF: LEGR 142000Z 1421/1521 VRB02KT CAVOK TX35/1515Z TN16/1506Z BECMG 1512/1514 27010KT

Weather observations and forecasts of more than 4000 airports (METAR and TAF reports).

The available stations are represented by yellow and red dots on the map.

Hover mouse over dot to see the name of the station.

Then click to see weather observations and forecasts.

To change the map : click on the green buttons with a black cross to zoom in, on the green button with a dash to zoom out, or on the green arrows for adjacent maps.


METAR-TAF: